createdAt,value
2022-12-19T00:00:40.433Z,56.80
2022-12-19T00:01:40.507Z,59.70
2022-12-19T00:02:40.505Z,60.40
2022-12-19T00:03:40.430Z,59.60
2022-12-19T00:04:40.450Z,59.60
2022-12-19T00:05:41.047Z,55.50
2022-12-19T00:06:43.577Z,58.30
2022-12-19T00:07:40.368Z,59.40
2022-12-19T00:08:40.346Z,60.20
2022-12-19T00:09:40.323Z,65.50
2022-12-19T00:10:40.395Z,62.50
2022-12-19T00:11:40.316Z,62.70
2022-12-19T00:12:40.299Z,61.50
2022-12-19T00:13:40.927Z,64.40
2022-12-19T00:14:40.290Z,64.10
2022-12-19T00:15:40.274Z,64.90
2022-12-19T00:16:40.314Z,59.10
2022-12-19T00:17:40.276Z,56.40
2022-12-19T00:18:40.357Z,59.30
2022-12-19T00:19:40.291Z,63.30
2022-12-19T00:20:40.325Z,56.20
2022-12-19T00:21:40.224Z,57.60
2022-12-19T00:22:40.276Z,60.30
2022-12-19T00:23:40.226Z,58.40
2022-12-19T00:24:40.229Z,52.00
2022-12-19T00:25:40.208Z,57.00
2022-12-19T00:26:40.197Z,58.80
2022-12-19T00:27:40.234Z,56.10
2022-12-19T00:28:40.172Z,57.10
2022-12-19T00:29:40.211Z,54.40
2022-12-19T00:30:40.172Z,53.50
2022-12-19T00:31:40.223Z,56.30
2022-12-19T00:32:40.141Z,57.30
2022-12-19T00:33:42.605Z,56.20
2022-12-19T00:34:40.156Z,55.10
2022-12-19T00:35:40.138Z,57.00
2022-12-19T00:37:12.140Z,60.40
2022-12-19T00:38:46.680Z,57.20
2022-12-19T00:39:46.717Z,59.40
2022-12-19T00:40:46.688Z,58.40
2022-12-19T00:41:46.716Z,64.00
2022-12-19T00:42:53.265Z,62.70
2022-12-19T00:43:48.818Z,63.50
2022-12-19T00:44:48.329Z,61.60
2022-12-19T00:45:47.897Z,58.20
2022-12-19T00:46:52.413Z,56.70
2022-12-19T00:47:48.792Z,56.10
2022-12-19T00:48:47.810Z,61.40
2022-12-19T00:49:47.770Z,54.00
2022-12-19T00:50:47.762Z,58.20
2022-12-19T00:51:47.768Z,54.40
2022-12-19T00:52:48.853Z,57.30
2022-12-19T00:53:48.293Z,53.60
2022-12-19T00:54:47.780Z,55.20
2022-12-19T00:55:47.709Z,57.00
2022-12-19T00:56:47.741Z,58.80
2022-12-19T00:57:47.718Z,55.50
2022-12-19T00:58:47.858Z,63.00
2022-12-19T00:59:47.689Z,57.40
2022-12-19T01:00:47.699Z,61.70
2022-12-19T01:01:47.818Z,61.20
2022-12-19T01:02:47.795Z,57.30
2022-12-19T01:04:18.590Z,55.80
2022-12-19T01:04:49.673Z,60.80
2022-12-19T01:05:47.645Z,58.20
2022-12-19T01:06:47.623Z,58.70
2022-12-19T01:07:47.623Z,56.50
2022-12-19T01:08:47.736Z,60.80
2022-12-19T01:09:47.625Z,63.90
2022-12-19T01:10:47.614Z,63.40
2022-12-19T01:11:47.611Z,59.50
2022-12-19T01:12:47.617Z,64.90
2022-12-19T01:13:47.599Z,64.30
2022-12-19T01:14:47.627Z,65.30
2022-12-19T01:15:47.592Z,66.00
2022-12-19T01:16:47.655Z,64.40
2022-12-19T01:17:48.406Z,70.70
2022-12-19T01:18:47.549Z,65.00
2022-12-19T01:19:47.566Z,59.70
2022-12-19T01:20:47.522Z,67.00
2022-12-19T01:21:47.516Z,62.50
2022-12-19T01:22:47.512Z,63.60
2022-12-19T01:23:47.499Z,61.10
2022-12-19T01:24:47.594Z,65.90
2022-12-19T01:25:47.497Z,65.50
2022-12-19T01:26:47.496Z,60.90
2022-12-19T01:27:47.482Z,64.10
2022-12-19T01:28:47.475Z,61.50
2022-12-19T01:29:52.475Z,64.60
2022-12-19T01:30:48.474Z,63.20
2022-12-19T01:31:47.571Z,68.10
2022-12-19T01:32:47.434Z,67.10
2022-12-19T01:33:47.425Z,65.00
2022-12-19T01:34:48.416Z,66.10
2022-12-19T01:35:47.440Z,62.90
2022-12-19T01:36:47.418Z,63.60
2022-12-19T01:37:47.425Z,61.00
2022-12-19T01:38:47.396Z,67.40
2022-12-19T01:39:47.395Z,62.20
2022-12-19T01:40:47.474Z,65.90
2022-12-19T01:41:47.401Z,63.50
2022-12-19T01:42:47.369Z,63.70
2022-12-19T01:43:47.365Z,63.90
2022-12-19T01:45:19.271Z,62.60
2022-12-19T01:45:47.423Z,64.90
2022-12-19T01:46:47.366Z,69.00
2022-12-19T01:47:47.323Z,66.10
2022-12-19T01:48:48.319Z,72.50
2022-12-19T01:49:47.333Z,74.00
2022-12-19T01:51:00.541Z,72.40
2022-12-19T01:51:48.329Z,72.70
2022-12-19T01:52:47.284Z,73.60
2022-12-19T01:53:48.756Z,71.80
2022-12-19T01:54:47.284Z,67.70
2022-12-19T01:55:47.270Z,70.70
2022-12-19T01:56:47.310Z,66.50
2022-12-19T01:57:47.239Z,67.90
2022-12-19T01:58:47.254Z,72.50
2022-12-19T01:59:47.230Z,67.30
2022-12-19T02:00:47.236Z,67.90
2022-12-19T02:01:52.038Z,64.90
2022-12-19T02:02:48.283Z,63.90
2022-12-19T02:03:47.184Z,63.00
2022-12-19T02:04:47.904Z,62.40
2022-12-19T02:05:47.166Z,67.20
2022-12-19T02:06:47.168Z,65.90
2022-12-19T02:07:47.171Z,66.10
2022-12-19T02:08:47.139Z,67.80
2022-12-19T02:09:47.120Z,66.70
2022-12-19T02:10:47.114Z,66.90
2022-12-19T02:11:47.100Z,62.60
2022-12-19T02:12:47.194Z,66.30
2022-12-19T02:13:47.111Z,67.70
2022-12-19T02:14:47.076Z,59.70
2022-12-19T02:15:47.094Z,62.80
2022-12-19T02:16:47.109Z,65.60
2022-12-19T02:17:48.264Z,63.20
2022-12-19T02:18:48.063Z,63.00
2022-12-19T02:19:47.041Z,64.90
2022-12-19T02:20:47.059Z,68.50
2022-12-19T02:21:47.038Z,60.20
2022-12-19T02:22:47.056Z,64.10
2022-12-19T02:23:47.034Z,62.20
2022-12-19T02:24:47.033Z,67.10
2022-12-19T02:25:47.046Z,62.30
2022-12-19T02:26:47.014Z,64.20
2022-12-19T02:27:46.996Z,64.50
2022-12-19T02:28:47.072Z,59.10
2022-12-19T02:29:47.023Z,64.50
2022-12-19T02:30:46.975Z,64.50
2022-12-19T02:31:47.016Z,63.80
2022-12-19T02:32:47.058Z,61.20
2022-12-19T02:33:46.961Z,61.70
2022-12-19T02:34:46.952Z,62.20
2022-12-19T02:35:46.937Z,65.20
2022-12-19T02:36:46.937Z,61.40
2022-12-19T02:37:47.928Z,63.80
2022-12-19T02:38:46.915Z,58.20
2022-12-19T02:39:46.909Z,64.50
2022-12-19T02:40:47.778Z,62.60
2022-12-19T02:41:47.894Z,58.40
2022-12-19T02:42:46.890Z,60.60
2022-12-19T02:43:47.159Z,62.60
2022-12-19T02:44:46.973Z,61.80
2022-12-19T02:45:46.908Z,63.40
2022-12-19T02:46:46.869Z,60.20
2022-12-19T02:47:46.845Z,64.60
2022-12-19T02:48:46.857Z,64.50
2022-12-19T02:49:46.847Z,66.10
2022-12-19T02:50:46.900Z,66.70
2022-12-19T02:51:46.820Z,68.40
2022-12-19T02:52:46.816Z,64.00
2022-12-19T02:53:46.823Z,68.10
2022-12-19T02:54:46.807Z,67.50
2022-12-19T02:55:46.805Z,69.80
2022-12-19T02:56:46.802Z,71.30
2022-12-19T02:57:46.801Z,65.10
2022-12-19T02:58:46.776Z,67.90
2022-12-19T02:59:46.776Z,69.90
2022-12-19T03:00:46.842Z,71.70
2022-12-19T03:01:46.879Z,68.40
2022-12-19T03:02:54.889Z,70.10
2022-12-19T03:03:47.754Z,64.50
2022-12-19T03:04:46.727Z,67.80
2022-12-19T03:05:46.768Z,69.60
2022-12-19T03:06:46.744Z,67.80
2022-12-19T03:07:46.700Z,69.10
2022-12-19T03:08:46.698Z,66.80
2022-12-19T03:09:46.692Z,67.80
2022-12-19T03:10:46.691Z,64.50
2022-12-19T03:11:46.720Z,65.80
2022-12-19T03:12:46.669Z,70.80
2022-12-19T03:13:46.670Z,60.00
2022-12-19T03:14:46.659Z,61.60
2022-12-19T03:15:46.658Z,64.40
2022-12-19T03:16:46.837Z,62.00
2022-12-19T03:17:46.687Z,66.40
2022-12-19T03:18:46.646Z,67.50
2022-12-19T03:19:46.639Z,66.60
2022-12-19T03:21:18.529Z,74.70
2022-12-19T03:21:46.655Z,67.90
2022-12-19T03:22:46.600Z,66.50
2022-12-19T03:23:46.608Z,64.80
2022-12-19T03:24:47.027Z,65.30
2022-12-19T03:25:46.582Z,71.90
2022-12-19T03:26:46.590Z,71.30
2022-12-19T03:27:46.555Z,93.40
2022-12-19T03:28:46.579Z,70.80
2022-12-19T03:29:46.575Z,78.70
2022-12-19T03:30:46.617Z,77.80
2022-12-19T03:31:46.556Z,72.90
2022-12-19T03:32:46.646Z,78.10
2022-12-19T03:33:46.547Z,72.10
2022-12-19T03:34:46.518Z,66.10
2022-12-19T03:35:46.530Z,70.60
2022-12-19T03:36:46.511Z,69.30
2022-12-19T03:37:46.500Z,68.90
2022-12-19T03:38:46.499Z,70.30
2022-12-19T03:39:46.480Z,68.90
2022-12-19T03:40:46.498Z,74.00
2022-12-19T03:41:46.985Z,73.50
2022-12-19T03:42:46.453Z,70.60
2022-12-19T03:43:46.474Z,68.40
2022-12-19T03:44:46.448Z,69.80
2022-12-19T03:45:46.528Z,69.10
2022-12-19T03:46:46.436Z,68.80
2022-12-19T04:02:56.660Z,56.50
2022-12-19T04:03:56.568Z,66.30
2022-12-19T04:04:57.741Z,58.50
2022-12-19T04:05:57.615Z,69.50
2022-12-19T04:06:57.658Z,62.30
2022-12-19T04:07:57.643Z,64.70
2022-12-19T04:08:57.599Z,61.70
2022-12-19T04:09:57.593Z,68.60
2022-12-19T04:10:57.591Z,62.20
2022-12-19T04:11:57.600Z,60.50
2022-12-19T04:12:57.618Z,65.60
2022-12-19T04:13:57.573Z,65.60
2022-12-19T04:14:57.703Z,65.70
2022-12-19T04:15:57.634Z,62.30
2022-12-19T04:16:57.538Z,59.40
2022-12-19T04:17:57.552Z,60.60
2022-12-19T04:18:57.616Z,64.60
2022-12-19T04:19:57.568Z,62.70
2022-12-19T04:20:57.507Z,62.20
2022-12-19T04:21:57.501Z,62.10
2022-12-19T04:22:57.504Z,58.50
2022-12-19T04:23:57.510Z,61.80
2022-12-19T04:24:57.505Z,60.30
2022-12-19T04:25:57.484Z,66.00
2022-12-19T04:26:57.473Z,69.10
2022-12-19T04:27:57.477Z,68.10
2022-12-19T04:28:57.437Z,77.50
2022-12-19T04:29:58.439Z,77.60
2022-12-19T04:30:57.437Z,66.50
2022-12-19T04:31:57.424Z,65.50
2022-12-19T04:32:57.408Z,61.70
2022-12-19T04:33:57.435Z,60.30
2022-12-19T04:34:57.510Z,62.40
2022-12-19T04:35:57.440Z,62.80
2022-12-19T04:36:57.407Z,62.00
2022-12-19T04:37:58.254Z,64.20
2022-12-19T04:38:57.383Z,62.00
2022-12-19T04:39:57.460Z,61.00
2022-12-19T04:40:57.369Z,58.20
2022-12-19T04:41:57.356Z,60.00
2022-12-19T04:42:57.349Z,58.60
2022-12-19T04:43:57.370Z,57.40
2022-12-19T04:44:57.461Z,62.90
2022-12-19T04:45:57.880Z,59.70
2022-12-19T04:46:58.337Z,58.30
2022-12-19T04:47:57.316Z,57.70
2022-12-19T04:48:57.307Z,56.10
2022-12-19T04:49:57.303Z,57.70
2022-12-19T04:50:57.380Z,60.50
2022-12-19T04:51:57.286Z,61.00
2022-12-19T04:52:57.396Z,59.20
2022-12-19T04:53:58.265Z,62.60
2022-12-19T04:54:57.256Z,58.00
2022-12-19T04:55:57.240Z,60.20
2022-12-19T04:56:58.234Z,62.30
2022-12-19T04:57:57.262Z,62.90
2022-12-19T04:58:57.224Z,62.70
2022-12-19T04:59:57.295Z,64.60
2022-12-19T05:00:57.197Z,63.00
2022-12-19T05:01:57.304Z,59.10
2022-12-19T05:02:58.505Z,62.60
2022-12-19T05:04:01.379Z,67.60
2022-12-19T05:04:59.183Z,60.30
2022-12-19T05:05:57.169Z,60.20
2022-12-19T05:06:57.261Z,66.40
2022-12-19T05:07:57.146Z,65.00
2022-12-19T05:08:57.152Z,62.40
2022-12-19T05:09:57.135Z,57.80
2022-12-19T05:10:57.142Z,65.50
2022-12-19T05:11:57.149Z,65.70
2022-12-19T05:12:57.103Z,63.80
2022-12-19T05:13:57.103Z,67.00
2022-12-19T05:14:57.100Z,64.30
2022-12-19T05:15:57.140Z,60.90
2022-12-19T05:17:01.265Z,65.90
2022-12-19T05:17:58.072Z,68.00
2022-12-19T05:18:57.052Z,64.50
2022-12-19T05:19:58.071Z,64.70
2022-12-19T05:20:57.059Z,62.80
2022-12-19T05:21:57.050Z,66.20
2022-12-19T05:22:57.161Z,64.30
2022-12-19T05:23:57.018Z,62.80
2022-12-19T05:24:57.030Z,67.10
2022-12-19T05:25:57.029Z,64.80
2022-12-19T05:26:57.022Z,62.30
2022-12-19T05:27:56.994Z,59.80
2022-12-19T05:28:56.999Z,63.60
2022-12-19T05:29:57.060Z,62.00
2022-12-19T05:30:57.032Z,71.60
2022-12-19T05:31:56.976Z,63.50
2022-12-19T05:32:56.952Z,62.40
2022-12-19T05:33:56.946Z,67.20
2022-12-19T05:34:56.952Z,65.70
2022-12-19T05:35:56.966Z,69.80
2022-12-19T05:36:56.944Z,75.50
2022-12-19T05:37:56.924Z,76.00
2022-12-19T05:38:56.997Z,68.20
2022-12-19T05:39:56.928Z,69.50
2022-12-19T05:40:56.920Z,64.50
2022-12-19T05:41:56.901Z,69.40
2022-12-19T05:42:56.891Z,66.70
2022-12-19T05:43:56.868Z,73.00
2022-12-19T05:44:56.887Z,72.80
2022-12-19T05:45:56.864Z,67.00
2022-12-19T05:46:56.918Z,67.90
2022-12-19T05:48:01.203Z,62.30
2022-12-19T05:48:57.838Z,63.10
2022-12-19T05:49:56.854Z,61.50
2022-12-19T05:50:56.835Z,63.50
2022-12-19T05:51:56.816Z,61.30
2022-12-19T05:52:56.806Z,59.10
2022-12-19T05:53:56.801Z,65.90
2022-12-19T05:54:57.809Z,73.80
2022-12-19T05:55:56.803Z,57.50
2022-12-19T05:56:56.770Z,58.60
2022-12-19T05:57:56.784Z,65.50
2022-12-19T05:58:56.752Z,59.10
2022-12-19T05:59:56.841Z,58.40
2022-12-19T06:01:00.657Z,56.20
2022-12-19T06:01:57.804Z,58.50
2022-12-19T06:02:56.875Z,59.80
2022-12-19T06:03:56.756Z,62.60
2022-12-19T06:04:57.697Z,62.30
2022-12-19T06:05:56.708Z,68.50
2022-12-19T06:06:56.680Z,70.20
2022-12-19T06:07:56.703Z,68.30
2022-12-19T06:08:56.698Z,67.80
2022-12-19T06:09:57.212Z,65.40
2022-12-19T06:10:56.740Z,60.10
2022-12-19T06:11:56.645Z,66.50
2022-12-19T06:12:56.650Z,78.00
2022-12-19T06:13:56.633Z,63.90
2022-12-19T06:14:56.759Z,76.00
2022-12-19T06:15:56.645Z,74.70
2022-12-19T06:16:56.610Z,71.10
2022-12-19T06:17:56.625Z,67.70
2022-12-19T06:18:56.611Z,75.60
2022-12-19T06:19:56.607Z,69.20
2022-12-19T06:20:56.616Z,70.70
2022-12-19T06:21:56.582Z,69.10
2022-12-19T06:22:56.555Z,64.60
2022-12-19T06:23:56.593Z,77.40
2022-12-19T06:24:56.552Z,68.60
2022-12-19T06:25:56.549Z,81.50
2022-12-19T06:26:56.637Z,80.00
2022-12-19T06:27:56.521Z,72.80
2022-12-19T06:28:56.558Z,87.00
2022-12-19T06:29:56.526Z,69.90
2022-12-19T06:30:56.524Z,66.20
2022-12-19T06:31:56.501Z,68.50
2022-12-19T06:32:56.486Z,74.80
2022-12-19T06:33:56.531Z,74.70
2022-12-19T06:35:03.961Z,76.80
2022-12-19T06:35:58.482Z,78.30
2022-12-19T06:37:28.413Z,77.90
2022-12-19T06:38:00.828Z,81.40
2022-12-19T06:38:58.462Z,78.90
2022-12-19T06:39:56.444Z,82.40
2022-12-19T06:40:56.446Z,66.00
2022-12-19T06:41:56.423Z,77.20
2022-12-19T06:42:56.647Z,70.10
2022-12-19T06:43:56.420Z,74.80
2022-12-19T06:44:56.589Z,73.30
2022-12-19T06:45:56.487Z,70.00
2022-12-19T06:46:56.379Z,73.50
2022-12-19T06:47:56.378Z,65.10
2022-12-19T06:48:56.406Z,70.20
2022-12-19T06:49:56.406Z,69.30
2022-12-19T06:50:56.368Z,69.40
2022-12-19T06:51:56.431Z,68.90
2022-12-19T06:52:56.338Z,68.90
2022-12-19T06:53:56.335Z,69.70
2022-12-19T06:54:56.341Z,72.60
2022-12-19T06:55:56.345Z,75.30
2022-12-19T06:56:56.336Z,84.90
2022-12-19T06:57:56.304Z,77.50
2022-12-19T06:58:56.405Z,85.90
2022-12-19T06:59:56.288Z,79.90
2022-12-19T07:00:56.392Z,87.30
2022-12-19T07:01:56.394Z,84.00
2022-12-19T07:02:56.351Z,89.00
2022-12-19T07:03:56.300Z,73.30
2022-12-19T07:04:56.245Z,78.50
2022-12-19T07:05:56.245Z,74.70
2022-12-19T07:06:56.255Z,79.40
2022-12-19T07:07:56.250Z,83.10
2022-12-19T07:08:56.233Z,71.00
2022-12-19T07:09:56.218Z,71.20
2022-12-19T07:10:56.270Z,73.50
2022-12-19T07:11:56.224Z,62.80
2022-12-19T07:12:56.195Z,58.50
2022-12-19T07:13:56.188Z,57.10
2022-12-19T07:14:56.258Z,57.70
2022-12-19T07:15:56.204Z,56.80
2022-12-19T07:16:56.164Z,54.40
2022-12-19T07:17:56.191Z,45.90
2022-12-19T07:18:56.149Z,51.70
2022-12-19T07:19:56.147Z,50.90
2022-12-19T07:20:56.146Z,49.80
2022-12-19T07:21:56.141Z,52.40
2022-12-19T07:22:56.143Z,49.30
2022-12-19T07:23:56.145Z,49.50
2022-12-19T07:24:56.111Z,50.60
2022-12-19T07:25:56.081Z,51.50
2022-12-19T07:26:56.085Z,51.60
2022-12-19T07:27:56.183Z,46.40
2022-12-19T07:28:56.111Z,45.20
2022-12-19T07:29:56.096Z,52.80
2022-12-19T07:30:56.145Z,47.90
2022-12-19T07:32:27.970Z,48.00
2022-12-19T07:32:56.087Z,50.20
2022-12-19T07:33:56.021Z,53.10
2022-12-19T07:34:56.039Z,51.00
2022-12-19T07:35:56.044Z,49.30
2022-12-19T07:36:56.056Z,47.70
2022-12-19T07:37:55.999Z,51.30
2022-12-19T07:38:56.023Z,49.80
2022-12-19T07:39:56.018Z,53.80
2022-12-19T07:40:56.031Z,44.10
2022-12-19T07:41:56.001Z,47.60
2022-12-19T07:42:55.955Z,45.40
2022-12-19T07:43:55.954Z,47.30
2022-12-19T07:44:55.981Z,41.70
2022-12-19T07:45:56.012Z,45.20
2022-12-19T07:46:56.025Z,40.00
2022-12-19T07:47:55.968Z,41.90
2022-12-19T07:48:55.922Z,51.70
2022-12-19T07:49:55.966Z,46.60
2022-12-19T07:50:55.904Z,44.50
2022-12-19T07:52:27.824Z,52.50
2022-12-19T07:52:55.962Z,47.70
2022-12-19T07:53:55.900Z,46.00
2022-12-19T07:54:55.909Z,48.10
2022-12-19T07:55:55.879Z,46.60
2022-12-19T07:56:55.849Z,32.90
2022-12-19T07:57:55.852Z,44.40
2022-12-19T07:58:55.847Z,40.50
2022-12-19T07:59:55.882Z,42.10
2022-12-19T08:00:56.868Z,39.60
2022-12-19T08:01:55.947Z,46.70
2022-12-19T08:02:56.084Z,48.00
2022-12-19T08:03:55.804Z,43.70
2022-12-19T08:04:55.811Z,46.30
2022-12-19T08:05:55.884Z,37.10
2022-12-19T08:06:55.782Z,35.80
2022-12-19T08:07:55.771Z,37.90
2022-12-19T08:08:55.796Z,41.00
2022-12-19T08:09:55.759Z,39.70
2022-12-19T08:10:55.775Z,42.00
2022-12-19T08:11:55.779Z,44.10
2022-12-19T08:12:55.727Z,45.50
2022-12-19T08:13:55.785Z,47.20
2022-12-19T08:14:57.466Z,44.80
2022-12-19T08:15:56.709Z,46.70
2022-12-19T08:17:19.836Z,44.40
2022-12-19T08:17:57.765Z,47.40
2022-12-19T08:18:55.852Z,45.60
2022-12-19T08:19:55.710Z,47.80
2022-12-19T08:20:56.310Z,49.90
2022-12-19T08:21:55.762Z,50.60
2022-12-19T08:22:55.670Z,51.10
2022-12-19T08:23:55.672Z,45.80
2022-12-19T08:24:55.650Z,47.40
2022-12-19T08:25:55.635Z,46.10
2022-12-19T08:26:55.642Z,49.20
2022-12-19T08:27:55.656Z,40.80
2022-12-19T08:28:55.633Z,38.50
2022-12-19T08:29:55.609Z,46.80
2022-12-19T08:30:55.701Z,43.90
2022-12-19T08:31:55.626Z,43.40
2022-12-19T08:32:56.249Z,45.50
2022-12-19T08:33:55.680Z,45.20
2022-12-19T08:34:55.717Z,45.00
2022-12-19T08:35:55.593Z,37.40
2022-12-19T08:36:55.630Z,43.60
2022-12-19T08:37:55.652Z,43.60
2022-12-19T08:38:55.597Z,44.90
2022-12-19T08:39:55.561Z,42.90
2022-12-19T08:40:55.553Z,42.80
2022-12-19T08:41:55.553Z,39.00
2022-12-19T08:42:55.564Z,43.00
2022-12-19T08:43:55.579Z,45.60
2022-12-19T08:44:55.528Z,52.10
2022-12-19T08:45:55.558Z,49.10
2022-12-19T08:46:55.496Z,52.20
2022-12-19T08:47:55.483Z,49.40
2022-12-19T08:48:55.522Z,44.20
2022-12-19T08:49:55.474Z,49.10
2022-12-19T08:50:55.471Z,48.00
2022-12-19T08:51:55.465Z,46.00
2022-12-19T08:52:55.452Z,46.60
2022-12-19T08:53:55.468Z,46.20
2022-12-19T08:54:56.319Z,43.40
2022-12-19T08:55:55.429Z,46.60
2022-12-19T08:56:55.416Z,44.40
2022-12-19T08:57:55.417Z,49.30
2022-12-19T08:58:55.458Z,48.60
2022-12-19T08:59:55.431Z,51.40
2022-12-19T09:01:00.324Z,58.80
2022-12-19T09:01:57.586Z,52.50
2022-12-19T09:02:55.508Z,45.70
2022-12-19T09:05:01.182Z,47.90
2022-12-19T09:06:00.267Z,48.70
2022-12-19T09:06:00.676Z,52.40
2022-12-19T09:06:56.423Z,51.10
2022-12-19T09:07:55.349Z,50.10
2022-12-19T09:09:00.183Z,52.80
2022-12-19T09:09:56.336Z,53.40
2022-12-19T09:10:55.350Z,54.50
2022-12-19T09:11:55.330Z,58.00
2022-12-19T09:12:56.011Z,54.20
2022-12-19T09:14:27.202Z,59.60
2022-12-19T09:14:55.350Z,60.20
2022-12-19T09:15:55.320Z,58.40
2022-12-19T09:16:55.354Z,76.00
2022-12-19T09:17:56.197Z,66.10
2022-12-19T09:18:55.305Z,59.70
2022-12-19T09:19:55.291Z,63.30
2022-12-19T09:20:55.271Z,66.00
2022-12-19T09:21:55.282Z,77.40
2022-12-19T09:22:55.980Z,65.00
2022-12-19T09:23:58.239Z,63.70
2022-12-19T09:24:56.219Z,63.60
2022-12-19T09:25:55.212Z,64.20
2022-12-19T09:26:55.270Z,71.40
2022-12-19T09:28:26.357Z,75.00
2022-12-19T09:28:57.206Z,74.90
2022-12-19T09:29:55.167Z,74.90
2022-12-19T09:30:55.190Z,77.30
2022-12-19T09:31:56.923Z,62.40
2022-12-19T09:32:55.165Z,59.20
2022-12-19T09:33:55.134Z,63.60
2022-12-19T09:34:55.134Z,57.10
2022-12-19T09:35:55.497Z,63.60
2022-12-19T09:36:55.120Z,65.30
2022-12-19T09:38:00.050Z,69.70
2022-12-19T09:38:56.209Z,61.10
2022-12-19T09:39:58.883Z,63.00
2022-12-19T09:40:55.095Z,59.00
2022-12-19T09:41:55.129Z,56.50
2022-12-19T09:42:55.107Z,58.60
2022-12-19T09:43:55.062Z,59.50
2022-12-19T09:44:55.070Z,53.80
2022-12-19T09:45:56.016Z,54.00
2022-12-19T09:46:55.063Z,55.30
2022-12-19T09:47:55.102Z,55.10
2022-12-19T09:48:55.473Z,55.70
2022-12-19T09:49:55.023Z,54.40
2022-12-19T09:50:54.996Z,54.40
2022-12-19T09:51:55.049Z,56.50
2022-12-19T09:52:55.185Z,50.30
2022-12-19T09:53:54.979Z,55.90
2022-12-19T09:54:55.082Z,54.50
2022-12-19T09:55:55.221Z,55.10
2022-12-19T09:56:54.967Z,55.70
2022-12-19T09:57:55.084Z,55.80
2022-12-19T09:58:54.924Z,52.20
2022-12-19T09:59:54.915Z,52.20
2022-12-19T10:00:58.661Z,53.10
2022-12-19T10:01:55.949Z,51.10
2022-12-19T10:02:55.080Z,59.20
2022-12-19T10:03:54.935Z,59.30
2022-12-19T10:04:59.272Z,58.70
2022-12-19T10:06:53.343Z,53.70
2022-12-19T10:07:21.336Z,51.00
2022-12-19T10:08:08.863Z,52.10
2022-12-19T10:09:36.588Z,51.00
2022-12-19T10:12:36.168Z,50.70
2022-12-19T10:12:42.398Z,54.30
2022-12-19T10:12:45.699Z,56.50
2022-12-19T10:12:59.250Z,54.40
2022-12-19T10:13:55.821Z,54.10
2022-12-19T10:14:54.845Z,50.50
2022-12-19T10:15:56.183Z,53.80
2022-12-19T10:17:22.693Z,66.70
2022-12-19T10:17:56.783Z,56.60
2022-12-19T10:18:57.063Z,51.90
2022-12-19T10:19:55.783Z,49.50
2022-12-19T10:20:54.786Z,51.10
2022-12-19T10:22:19.812Z,52.90
2022-12-19T10:22:56.749Z,55.00
2022-12-19T10:23:54.727Z,53.00
2022-12-19T10:25:08.297Z,53.40
2022-12-19T10:25:55.792Z,51.50
2022-12-19T10:26:54.824Z,52.10
2022-12-19T10:27:58.594Z,50.60
2022-12-19T10:28:54.741Z,54.40
2022-12-19T10:29:54.734Z,50.00
2022-12-19T10:30:54.792Z,49.20
2022-12-19T10:31:54.747Z,49.60
2022-12-19T10:32:54.695Z,49.40
2022-12-19T10:33:54.663Z,56.30
2022-12-19T10:34:54.668Z,51.50
2022-12-19T10:35:54.655Z,50.90
2022-12-19T10:37:56.624Z,63.50
2022-12-19T10:38:54.642Z,52.20
2022-12-19T10:39:54.592Z,55.90
2022-12-19T10:40:54.659Z,50.60
2022-12-19T10:41:54.657Z,50.60
2022-12-19T10:42:54.706Z,54.30
2022-12-19T10:43:54.601Z,48.90
2022-12-19T10:44:56.379Z,52.90
2022-12-19T10:46:26.538Z,48.90
2022-12-19T10:46:54.655Z,53.80
2022-12-19T10:47:54.576Z,48.30
2022-12-19T10:48:54.563Z,51.40
2022-12-19T10:49:55.430Z,44.40
2022-12-19T10:50:54.554Z,44.00
2022-12-19T10:51:54.545Z,49.00
2022-12-19T10:52:54.570Z,47.90
2022-12-19T10:53:54.526Z,48.30
2022-12-19T10:54:54.548Z,49.40
2022-12-19T10:55:54.483Z,46.60
2022-12-19T10:56:54.484Z,47.90
2022-12-19T10:57:54.551Z,46.10
2022-12-19T10:58:54.576Z,48.40
2022-12-19T10:59:54.483Z,44.80
2022-12-19T11:00:54.487Z,48.20
2022-12-19T11:02:00.894Z,48.00
2022-12-19T11:02:55.554Z,47.40
2022-12-19T11:03:54.483Z,48.40
2022-12-19T11:05:26.511Z,47.20
2022-12-19T11:05:57.828Z,48.50
2022-12-19T11:06:54.450Z,52.20
2022-12-19T11:07:54.439Z,48.30
2022-12-19T11:08:54.512Z,46.70
2022-12-19T11:10:55.882Z,46.70
2022-12-19T11:11:12.629Z,46.50
2022-12-19T11:13:33.723Z,49.70
2022-12-19T11:16:43.137Z,51.00
2022-12-19T11:17:33.392Z,54.00
2022-12-19T11:20:50.026Z,57.70
2022-12-19T11:21:26.950Z,53.50
2022-12-19T11:23:08.298Z,51.60
2022-12-19T11:26:51.997Z,50.00
2022-12-19T11:29:12.216Z,55.40
2022-12-19T11:29:18.523Z,49.00
2022-12-19T11:29:30.189Z,51.50
2022-12-19T11:29:32.068Z,53.60
2022-12-19T11:29:35.024Z,52.90
2022-12-19T11:29:39.074Z,51.40
2022-12-19T11:29:46.627Z,52.70
2022-12-19T11:29:54.224Z,52.90
2022-12-19T11:30:43.939Z,51.20
2022-12-19T11:30:46.432Z,49.80
2022-12-19T11:30:47.825Z,59.10
2022-12-19T11:31:51.408Z,54.70
2022-12-19T11:32:56.487Z,51.40
2022-12-19T11:33:54.286Z,47.40
2022-12-19T11:34:54.171Z,52.80
2022-12-19T11:35:54.187Z,50.70
2022-12-19T11:36:54.204Z,51.10
2022-12-19T11:37:55.849Z,51.00
2022-12-19T11:38:55.325Z,50.80
2022-12-19T11:39:54.146Z,52.50
2022-12-19T11:40:54.219Z,49.30
2022-12-19T11:41:55.130Z,53.50
2022-12-19T11:43:25.586Z,53.20
2022-12-19T11:43:56.155Z,52.90
2022-12-19T11:44:54.146Z,56.90
2022-12-19T11:45:54.957Z,49.80
2022-12-19T11:46:54.167Z,49.90
2022-12-19T11:47:54.106Z,60.00
2022-12-19T11:48:54.076Z,49.40
2022-12-19T11:49:54.090Z,47.20
2022-12-19T11:50:54.065Z,49.70
2022-12-19T11:51:54.094Z,56.40
2022-12-19T11:53:18.380Z,62.30
2022-12-19T11:53:56.087Z,55.90
2022-12-19T11:54:54.040Z,54.60
2022-12-19T11:55:54.025Z,100.60
2022-12-19T11:56:54.074Z,107.40
2022-12-19T11:57:54.012Z,70.60
2022-12-19T11:58:54.087Z,65.80
2022-12-19T11:59:55.007Z,50.30
2022-12-19T12:00:54.015Z,44.70
2022-12-19T12:01:54.054Z,68.70
2022-12-19T12:02:54.087Z,94.30
2022-12-19T12:04:01.974Z,96.10
2022-12-19T12:04:55.803Z,77.40
2022-12-19T12:05:53.994Z,48.70
2022-12-19T12:06:54.022Z,50.20
2022-12-19T12:09:45.987Z,59.50
2022-12-19T12:11:34.080Z,55.40
2022-12-19T12:13:40.618Z,55.40
2022-12-19T12:15:52.253Z,52.90
2022-12-19T12:17:12.664Z,56.10
2022-12-19T12:19:46.081Z,45.10
2022-12-19T12:23:20.840Z,53.20
2022-12-19T12:25:11.523Z,50.80
2022-12-19T12:30:26.177Z,55.30
2022-12-19T12:31:01.215Z,49.50
2022-12-19T12:31:07.991Z,54.80
2022-12-19T12:31:13.774Z,55.10
2022-12-19T12:31:14.531Z,49.40
2022-12-19T12:31:15.791Z,52.50
2022-12-19T12:31:15.836Z,49.60
2022-12-19T12:31:23.085Z,48.60
2022-12-19T12:31:31.081Z,54.70
2022-12-19T12:31:44.603Z,52.40
2022-12-19T12:31:48.867Z,52.10
2022-12-19T12:31:49.892Z,59.60
2022-12-19T12:31:58.473Z,55.90
2022-12-19T12:32:03.740Z,53.30
2022-12-19T12:32:04.345Z,61.70
2022-12-19T12:35:19.125Z,59.00
2022-12-19T12:35:33.019Z,59.20
2022-12-19T12:35:33.277Z,62.70
2022-12-19T12:35:51.084Z,60.50
2022-12-19T12:35:51.087Z,67.10
2022-12-19T12:38:27.676Z,48.10
2022-12-19T12:38:53.838Z,49.90
2022-12-19T12:39:53.742Z,46.60
2022-12-19T12:40:53.763Z,44.90
2022-12-19T12:41:53.699Z,45.60
2022-12-19T12:42:53.802Z,44.80
2022-12-19T12:43:53.772Z,48.10
2022-12-19T12:44:53.784Z,46.40
2022-12-19T12:45:53.732Z,42.00
2022-12-19T12:46:53.735Z,44.30
2022-12-19T12:47:53.639Z,42.20
2022-12-19T12:48:53.654Z,45.10
2022-12-19T12:49:53.644Z,43.30
2022-12-19T12:50:55.388Z,42.20
2022-12-19T12:51:54.622Z,41.10
2022-12-19T12:52:53.680Z,47.00
2022-12-19T12:53:53.609Z,45.40
2022-12-19T12:54:54.539Z,42.80
2022-12-19T12:55:53.596Z,42.00
2022-12-19T12:56:55.383Z,37.80
2022-12-19T12:57:54.560Z,39.10
2022-12-19T12:58:54.336Z,35.80
2022-12-19T12:59:53.566Z,37.50
2022-12-19T13:00:53.618Z,43.40
2022-12-19T13:01:53.794Z,38.20
2022-12-19T13:02:53.714Z,40.20
2022-12-19T13:03:53.590Z,39.60
2022-12-19T13:04:53.966Z,40.60
2022-12-19T13:05:54.535Z,39.00
2022-12-19T13:06:53.491Z,41.60
2022-12-19T13:07:53.492Z,39.60
2022-12-19T13:08:53.536Z,40.40
2022-12-19T13:09:53.535Z,40.30
2022-12-19T13:10:53.487Z,40.70
2022-12-19T13:11:53.486Z,41.60
2022-12-19T13:12:53.455Z,42.20
2022-12-19T13:13:53.486Z,42.80